首页
METAR-TAF:

METAR-TAF

机场 :

蘇瀑支線機場

蘇瀑, 南达科他州, 美国

纬度: 43-34-37N, 经度: 096-45-13W, 海拔: 435米

当前天气观测

该预报发布于35分钟前的14:56 UTC
风速7节,风向北转东北
温度 21°C
湿度 53%
气压 1017 hPa
能見度: 16.1公里
少量云层高于10000英尺
多云层高于25000英尺

METAR: KFSD 181456Z 03007KT 10SM FEW100 BKN250 21/11 A3002 RMK AO2 SLP160 T02060106 58001

时间: 10:31 (15:31 UTC)

预报

该预报发布于4小时和11分钟前的11:20 UTC
预报有效从18日的 12点(UTC)到 19日的 12点(UTC)
风速3节,风向多变
能見度: 10公里
散云层高于10000英尺
多云层高于25000英尺
从 18日的 1500点(UTC)
风速5节,风向北转东北
能見度: 10公里
多云层高于25000英尺
从 18日的 1800点(UTC)
风速6节,风向北转东北
能見度: 10公里
多云层高于3500英尺
从 19日的 0000点(UTC)
风速4节,风向多变
能見度: 10公里
多云层高于3500英尺
从 19日的 0100点(UTC)
风速4节,风向多变
能見度: 10公里
散云层高于25000英尺

TAF: KFSD 181120Z 1812/1912 VRB03KT P6SM SCT100 BKN250 FM181500 03005KT P6SM BKN250 FM181800 02006KT P6SM BKN035 FM190000 VRB04KT P6SM BKN035 FM190100 VRB04KT P6SM SCT250

超过4000个机场的气象观测和天气预报(METAR&TAF报告)。

可查询的气象台以黄色和红色小点在地图上表示。

将鼠标移到小点上方,可查看气象台名称。

然后点击查看天气观测和预报。

如需切换地图:点击带黑十字的绿色按钮放大地图;点击带横线的绿色按钮缩小地图;或者点击绿色箭头查看邻近地区的地图。


METAR-TAF: